createdAt,value
2022-09-14T00:01:14.331Z,2.63
2022-09-14T00:03:40.053Z,5.15
2022-09-14T00:06:09.390Z,2.75
2022-09-14T00:08:36.533Z,3.85
2022-09-14T00:11:09.273Z,6.60
2022-09-14T00:13:36.821Z,4.00
2022-09-14T00:16:06.671Z,4.10
2022-09-14T00:21:05.347Z,5.30
2022-09-14T00:23:33.690Z,2.95
2022-09-14T00:26:09.054Z,4.00
2022-09-14T00:28:39.782Z,4.60
2022-09-14T00:31:08.767Z,6.47
2022-09-14T00:33:38.380Z,3.88
2022-09-14T00:36:09.103Z,5.78
2022-09-14T00:38:36.909Z,4.38
2022-09-14T00:41:04.971Z,3.60
2022-09-14T00:43:31.821Z,5.38
2022-09-14T00:46:02.377Z,2.95
2022-09-14T00:48:30.327Z,3.22
2022-09-14T00:50:57.373Z,4.10
2022-09-14T00:53:24.025Z,3.67
2022-09-14T00:55:54.058Z,5.43
2022-09-14T00:58:21.535Z,4.30
2022-09-14T01:00:48.313Z,3.90
2022-09-14T01:03:14.997Z,2.45
2022-09-14T01:14:34.767Z,2.40
2022-09-14T01:28:07.148Z,3.30
2022-09-14T01:30:36.935Z,5.72
2022-09-14T01:33:14.142Z,4.43
2022-09-14T01:35:49.299Z,4.65
2022-09-14T01:41:01.985Z,4.65
2022-09-14T01:43:59.897Z,5.97
2022-09-14T01:46:34.358Z,3.08
2022-09-14T01:49:12.061Z,3.72
2022-09-14T01:56:58.119Z,5.00
2022-09-14T01:59:27.912Z,3.72
2022-09-14T02:02:02.985Z,6.35
2022-09-14T02:04:44.730Z,4.10
2022-09-14T02:07:11.602Z,3.58
2022-09-14T02:09:38.853Z,4.00
2022-09-14T02:12:05.913Z,5.50
2022-09-14T02:14:32.692Z,5.13
2022-09-14T02:16:59.701Z,5.00
2022-09-14T02:19:33.512Z,5.10
2022-09-14T02:22:00.130Z,4.22
2022-09-14T02:24:27.409Z,6.45
2022-09-14T02:26:56.741Z,5.72
2022-09-14T02:29:23.420Z,5.78
2022-09-14T02:32:04.809Z,7.95
2022-09-14T02:39:56.819Z,6.72
2022-09-14T02:51:19.333Z,3.38
2022-09-14T02:59:11.264Z,4.68
2022-09-14T03:01:38.222Z,4.88
2022-09-14T03:04:04.820Z,5.40
2022-09-14T03:06:31.558Z,5.97
2022-09-14T03:08:58.629Z,4.65
2022-09-14T03:11:25.194Z,6.05
2022-09-14T03:13:51.868Z,3.47
2022-09-14T03:16:18.613Z,8.55
2022-09-14T03:18:45.288Z,4.97
2022-09-14T03:21:15.295Z,8.05
2022-09-14T03:23:45.462Z,6.82
2022-09-14T03:26:15.842Z,5.53
2022-09-14T03:28:42.908Z,4.72
2022-09-14T03:31:10.966Z,9.90
2022-09-14T03:33:37.820Z,5.40
2022-09-14T03:36:20.709Z,3.97
2022-09-14T03:41:15.878Z,4.38
2022-09-14T03:43:43.428Z,5.82
2022-09-14T03:46:12.430Z,4.22
2022-09-14T03:48:39.281Z,6.38
2022-09-14T03:51:07.821Z,9.40
2022-09-14T03:53:34.831Z,5.95
2022-09-14T03:56:01.549Z,7.55
2022-09-14T03:58:32.117Z,7.60
2022-09-14T04:01:05.075Z,5.93
2022-09-14T04:03:31.994Z,8.98
2022-09-14T04:05:58.777Z,8.23
2022-09-14T04:08:25.443Z,7.03
2022-09-14T04:10:52.292Z,8.25
2022-09-14T04:13:18.890Z,8.23
2022-09-14T04:15:55.476Z,5.85
2022-09-14T04:18:22.150Z,5.78
2022-09-14T04:21:04.510Z,4.43
2022-09-14T04:23:36.576Z,5.75
2022-09-14T04:26:18.094Z,8.02
2022-09-14T04:28:45.605Z,5.15
2022-09-14T04:31:13.335Z,6.90
2022-09-14T04:33:43.018Z,6.28
2022-09-14T04:36:13.868Z,7.43
2022-09-14T04:38:42.130Z,5.90
2022-09-14T04:41:12.054Z,6.35
2022-09-14T04:43:39.474Z,3.72
2022-09-14T04:46:09.956Z,6.53
2022-09-14T04:48:37.061Z,4.45
2022-09-14T04:51:07.049Z,4.22
2022-09-14T04:56:01.646Z,5.75
2022-09-14T04:58:29.132Z,6.95
2022-09-14T05:01:01.936Z,5.53
2022-09-14T05:03:28.479Z,7.13
2022-09-14T05:05:55.114Z,6.65
2022-09-14T05:08:21.643Z,7.00
2022-09-14T05:10:48.176Z,6.60
2022-09-14T05:13:16.189Z,5.97
2022-09-14T05:15:42.732Z,6.55
2022-09-14T05:18:09.274Z,5.50
2022-09-14T05:20:35.831Z,6.20
2022-09-14T05:23:02.369Z,5.22
2022-09-14T05:25:29.130Z,5.30
2022-09-14T05:27:55.649Z,7.70
2022-09-14T05:30:22.190Z,3.88
2022-09-14T05:32:48.704Z,4.82
2022-09-14T05:35:15.346Z,5.90
2022-09-14T05:37:41.876Z,3.47
2022-09-14T05:40:09.184Z,5.72
2022-09-14T05:42:35.827Z,5.30
2022-09-14T05:45:02.527Z,7.72
2022-09-14T05:47:30.589Z,4.55
2022-09-14T05:49:58.053Z,6.45
2022-09-14T05:52:24.639Z,5.75
2022-09-14T05:54:51.166Z,7.93
2022-09-14T05:57:17.698Z,8.35
2022-09-14T05:59:44.296Z,4.75
2022-09-14T06:02:13.513Z,6.88
2022-09-14T06:04:41.911Z,7.60
2022-09-14T06:07:18.374Z,6.50
2022-09-14T06:09:45.877Z,7.00
2022-09-14T06:12:14.605Z,6.78
2022-09-14T06:14:41.123Z,6.43
2022-09-14T06:17:07.666Z,7.38
2022-09-14T06:19:34.257Z,6.03
2022-09-14T06:22:01.083Z,7.20
2022-09-14T06:24:27.684Z,6.88
2022-09-14T06:26:54.246Z,7.28
2022-09-14T06:29:20.798Z,8.95
2022-09-14T06:31:47.323Z,9.27
2022-09-14T06:34:13.813Z,9.55
2022-09-14T06:36:40.328Z,9.93
2022-09-14T06:39:06.889Z,8.02
2022-09-14T06:41:34.412Z,8.43
2022-09-14T06:44:01.905Z,10.43
2022-09-14T06:46:31.381Z,11.45
2022-09-14T06:49:06.085Z,8.57
2022-09-14T06:51:38.305Z,8.60
2022-09-14T06:54:05.730Z,9.30
2022-09-14T06:56:35.530Z,7.80
2022-09-14T06:59:02.995Z,10.25
2022-09-14T07:01:30.067Z,9.32
2022-09-14T07:03:58.336Z,6.85
2022-09-14T07:06:26.999Z,9.48
2022-09-14T07:08:54.593Z,11.50
2022-09-14T07:11:23.894Z,11.18
2022-09-14T07:13:50.637Z,11.07
2022-09-14T07:16:17.548Z,10.48
2022-09-14T07:18:44.570Z,8.52
2022-09-14T07:21:15.120Z,8.07
2022-09-14T07:23:44.277Z,6.13
2022-09-14T07:28:53.917Z,9.93
2022-09-14T07:31:28.567Z,7.75
2022-09-14T07:33:57.938Z,6.57
2022-09-14T07:36:25.838Z,7.68
2022-09-14T07:38:53.660Z,7.05
2022-09-14T07:41:21.730Z,6.25
2022-09-14T07:43:50.087Z,7.20
2022-09-14T07:46:17.097Z,6.68
2022-09-14T07:48:43.794Z,8.60
2022-09-14T07:51:11.428Z,7.50
2022-09-14T07:53:40.567Z,8.75
2022-09-14T07:56:08.565Z,8.73
2022-09-14T07:58:35.734Z,8.98
2022-09-14T08:01:12.113Z,6.90
2022-09-14T08:03:42.107Z,7.30
2022-09-14T08:06:13.143Z,7.05
2022-09-14T08:08:42.083Z,6.32
2022-09-14T08:11:12.674Z,10.30
2022-09-14T08:13:42.236Z,8.75
2022-09-14T08:16:09.932Z,8.98
2022-09-14T08:18:38.322Z,11.43
2022-09-14T08:21:07.062Z,9.23
2022-09-14T08:23:34.650Z,9.52
2022-09-14T08:26:11.161Z,10.73
2022-09-14T08:28:38.536Z,7.50
2022-09-14T08:33:44.800Z,9.65
2022-09-14T08:36:13.762Z,8.98
2022-09-14T08:38:40.363Z,7.80
2022-09-14T08:41:16.289Z,7.90
2022-09-14T08:46:19.741Z,8.00
2022-09-14T08:48:49.208Z,9.15
2022-09-14T08:53:43.077Z,6.28
2022-09-14T08:56:16.155Z,7.95
2022-09-14T09:07:37.103Z,12.57
2022-09-14T09:10:05.847Z,6.85
2022-09-14T09:12:44.902Z,12.32
2022-09-14T09:15:21.779Z,9.43
2022-09-14T09:17:52.765Z,8.52
2022-09-14T09:20:24.150Z,9.30
2022-09-14T09:25:44.849Z,11.23
2022-09-14T09:28:13.462Z,9.10
2022-09-14T09:30:41.419Z,10.00
2022-09-14T09:33:16.959Z,7.85
2022-09-14T09:35:43.776Z,9.15
2022-09-14T09:38:16.209Z,10.20
2022-09-14T09:40:48.085Z,7.25
2022-09-14T09:43:28.992Z,9.63
2022-09-14T09:46:03.254Z,10.20
2022-09-14T09:48:45.914Z,12.13
2022-09-14T09:51:15.805Z,9.85
2022-09-14T09:53:48.824Z,11.63
2022-09-14T09:56:20.030Z,11.88
2022-09-14T09:58:51.550Z,14.75
2022-09-14T10:01:28.966Z,12.93
2022-09-14T10:04:24.839Z,12.82
2022-09-14T10:06:54.431Z,9.20
2022-09-14T10:09:23.434Z,13.55
2022-09-14T10:12:00.682Z,10.23
2022-09-14T10:17:18.187Z,12.77
2022-09-14T10:19:53.970Z,13.45
2022-09-14T10:30:41.449Z,12.75
2022-09-14T10:33:13.160Z,12.27
2022-09-14T10:41:05.125Z,11.55
2022-09-14T10:46:13.949Z,13.23
2022-09-14T10:54:27.177Z,12.00
2022-09-14T10:57:20.905Z,13.35
2022-09-14T11:26:50.345Z,9.15
2022-09-14T11:35:03.980Z,13.18
2022-09-14T11:37:39.594Z,10.57
2022-09-14T11:42:57.280Z,9.23
2022-09-14T11:45:30.181Z,9.93
2022-09-14T11:48:12.466Z,12.93
2022-09-14T11:50:57.607Z,9.63
2022-09-14T11:53:25.805Z,14.35
2022-09-14T11:55:52.511Z,10.77
2022-09-14T11:58:23.727Z,11.77
2022-09-14T12:03:52.243Z,13.10
2022-09-14T12:11:55.133Z,11.65
2022-09-14T12:19:38.269Z,9.68
2022-09-14T12:27:42.866Z,8.30
2022-09-14T12:44:33.065Z,5.80
2022-09-14T13:47:34.322Z,8.23
2022-09-14T13:50:01.343Z,9.75
2022-09-14T13:52:57.163Z,5.15
2022-09-14T13:55:28.349Z,6.38
2022-09-14T13:58:21.167Z,5.03
2022-09-14T14:03:40.406Z,6.95
2022-09-14T14:06:28.191Z,6.45
2022-09-14T14:09:05.684Z,5.88
2022-09-14T14:28:23.605Z,7.15
2022-09-14T14:30:50.812Z,9.57
2022-09-14T14:33:19.237Z,5.18
2022-09-14T14:35:48.690Z,7.28
2022-09-14T14:40:43.283Z,6.75
2022-09-14T14:43:18.730Z,7.18
2022-09-14T14:45:46.160Z,7.03
2022-09-14T14:48:12.834Z,5.90
2022-09-14T14:50:39.451Z,7.60
2022-09-14T14:53:06.792Z,8.55
2022-09-14T14:55:35.567Z,11.55
2022-09-14T14:58:08.688Z,7.43
2022-09-14T15:00:38.446Z,6.03
2022-09-14T15:03:05.213Z,12.15
2022-09-14T15:05:32.505Z,8.50
2022-09-14T15:07:59.243Z,7.35
2022-09-14T15:10:27.661Z,5.55
2022-09-14T15:12:54.841Z,4.60
2022-09-14T15:15:24.801Z,7.85
2022-09-14T15:17:52.630Z,7.07
2022-09-14T15:20:20.020Z,7.47
2022-09-14T15:22:47.934Z,8.38
2022-09-14T15:25:15.738Z,5.50
2022-09-14T15:27:42.296Z,5.25
2022-09-14T15:30:10.472Z,8.52
2022-09-14T15:32:37.053Z,5.10
2022-09-14T15:35:05.322Z,5.72
2022-09-14T15:37:32.016Z,7.47
2022-09-14T15:39:58.702Z,8.73
2022-09-14T15:42:25.702Z,6.90
2022-09-14T15:44:52.212Z,7.20
2022-09-14T15:47:18.751Z,6.05
2022-09-14T15:49:45.334Z,6.88
2022-09-14T15:52:12.526Z,6.65
2022-09-14T15:54:39.430Z,8.48
2022-09-14T15:57:10.107Z,8.30
2022-09-14T15:59:36.766Z,8.77
2022-09-14T16:02:04.016Z,6.28
2022-09-14T16:04:36.852Z,7.05
2022-09-14T16:07:05.426Z,5.43
2022-09-14T16:09:32.039Z,6.10
2022-09-14T16:12:01.808Z,6.28
2022-09-14T16:14:28.740Z,6.85
2022-09-14T16:16:55.428Z,7.82
2022-09-14T16:19:22.041Z,8.38
2022-09-14T16:21:53.458Z,8.10
2022-09-14T16:24:22.126Z,5.68
2022-09-14T16:26:48.657Z,5.03
2022-09-14T16:29:17.348Z,8.85
2022-09-14T16:31:45.686Z,7.53
2022-09-14T16:34:17.426Z,4.80
2022-09-14T16:36:44.822Z,5.03
2022-09-14T16:39:14.491Z,9.70
2022-09-14T16:41:42.273Z,5.18
2022-09-14T16:44:13.035Z,8.18
2022-09-14T16:46:39.675Z,5.53
2022-09-14T16:49:06.955Z,6.10
2022-09-14T16:51:35.744Z,6.18
2022-09-14T16:54:02.458Z,10.27
2022-09-14T16:56:31.709Z,6.75
2022-09-14T16:58:59.942Z,5.43
2022-09-14T17:04:09.607Z,10.60
2022-09-14T17:06:38.497Z,4.15
2022-09-14T17:09:08.574Z,6.45
2022-09-14T17:11:36.956Z,9.23
2022-09-14T17:14:04.845Z,6.40
2022-09-14T17:16:31.524Z,10.50
2022-09-14T17:19:00.671Z,2.78
2022-09-14T17:21:30.446Z,6.55
2022-09-14T17:23:57.188Z,4.63
2022-09-14T17:26:24.332Z,10.15
2022-09-14T17:28:54.165Z,4.70
2022-09-14T17:31:24.111Z,3.55
2022-09-14T17:33:53.138Z,2.70
2022-09-14T17:36:20.828Z,4.40
2022-09-14T17:38:48.537Z,5.60
2022-09-14T17:41:18.445Z,9.32
2022-09-14T17:43:45.205Z,4.20
2022-09-14T17:46:14.772Z,4.95
2022-09-14T17:51:11.961Z,4.45
2022-09-14T17:53:39.930Z,8.00
2022-09-14T17:56:08.564Z,7.28
2022-09-14T17:58:35.817Z,4.05
2022-09-14T18:03:42.964Z,6.45
2022-09-14T18:06:11.952Z,4.38
2022-09-14T18:08:39.960Z,5.25
2022-09-14T18:11:10.695Z,3.10
2022-09-14T18:13:41.783Z,3.45
2022-09-14T18:16:09.114Z,4.97
2022-09-14T18:18:35.731Z,4.03
2022-09-14T18:21:02.471Z,4.38
2022-09-14T18:23:29.540Z,4.22
2022-09-14T18:25:56.617Z,4.93
2022-09-14T18:28:24.650Z,5.15
2022-09-14T18:31:00.762Z,4.88
2022-09-14T18:35:54.416Z,3.05
2022-09-14T18:38:21.002Z,6.85
2022-09-14T18:40:48.396Z,5.60
2022-09-14T18:43:16.848Z,3.53
2022-09-14T18:45:44.680Z,4.22
2022-09-14T18:48:11.613Z,2.63
2022-09-14T18:50:40.067Z,4.05
2022-09-14T18:53:06.971Z,2.97
2022-09-14T18:55:34.090Z,4.68
2022-09-14T18:58:01.195Z,7.88
2022-09-14T19:00:28.200Z,2.92
2022-09-14T19:02:56.103Z,2.50
2022-09-14T19:05:24.163Z,4.47
2022-09-14T19:07:50.725Z,5.50
2022-09-14T19:10:17.848Z,4.68
2022-09-14T19:12:44.888Z,3.78
2022-09-14T19:15:12.254Z,5.88
2022-09-14T19:17:38.915Z,3.95
2022-09-14T19:20:07.501Z,3.95
2022-09-14T19:22:34.835Z,2.67
2022-09-14T19:25:01.575Z,6.45
2022-09-14T19:27:28.502Z,3.50
2022-09-14T19:29:55.101Z,2.33
2022-09-14T19:32:21.958Z,4.90
2022-09-14T19:34:49.554Z,6.13
2022-09-14T19:37:16.224Z,3.35
2022-09-14T19:39:42.999Z,2.58
2022-09-14T19:42:09.598Z,4.55
2022-09-14T19:44:36.149Z,3.20
2022-09-14T19:47:02.809Z,2.85
2022-09-14T19:49:29.375Z,2.78
2022-09-14T19:51:56.635Z,3.38
2022-09-14T19:54:23.243Z,4.13
2022-09-14T19:56:50.328Z,3.20
2022-09-14T19:59:16.957Z,3.67
2022-09-14T20:01:44.373Z,3.90
2022-09-14T20:04:11.432Z,2.80
2022-09-14T20:06:42.181Z,5.25
2022-09-14T20:09:27.666Z,5.35
2022-09-14T20:11:54.534Z,2.15
2022-09-14T20:14:23.735Z,3.95
2022-09-14T20:16:52.807Z,4.13
2022-09-14T20:19:22.158Z,3.70
2022-09-14T20:21:50.616Z,3.70
2022-09-14T20:24:20.024Z,3.20
2022-09-14T20:26:48.347Z,3.53
2022-09-14T20:29:15.725Z,3.00
2022-09-14T20:31:42.664Z,5.53
2022-09-14T20:34:09.383Z,5.65
2022-09-14T20:36:36.023Z,4.28
2022-09-14T20:39:03.619Z,7.10
2022-09-14T20:41:33.950Z,3.05
2022-09-14T20:44:01.123Z,2.60
2022-09-14T20:49:05.966Z,2.90
2022-09-14T20:51:32.586Z,3.42
2022-09-14T20:53:59.101Z,3.63
2022-09-14T20:56:28.349Z,3.25
2022-09-14T20:58:58.982Z,3.88
2022-09-14T21:01:28.238Z,2.70
2022-09-14T21:03:55.479Z,3.67
2022-09-14T21:06:24.587Z,3.22
2022-09-14T21:08:51.862Z,4.70
2022-09-14T21:11:21.843Z,5.25
2022-09-14T21:16:19.090Z,3.47
2022-09-14T21:18:48.116Z,3.15
2022-09-14T21:21:18.974Z,4.78
2022-09-14T21:23:48.353Z,3.10
2022-09-14T21:26:15.514Z,3.53
2022-09-14T21:28:42.144Z,2.30
2022-09-14T21:31:14.641Z,3.42
2022-09-14T21:33:44.916Z,3.67
2022-09-14T21:36:14.902Z,4.35
2022-09-14T21:38:42.172Z,2.97
2022-09-14T21:41:10.896Z,3.00
2022-09-14T21:43:39.398Z,3.58
2022-09-14T21:46:07.227Z,2.85
2022-09-14T21:48:34.713Z,4.15
2022-09-14T21:51:03.425Z,4.88
2022-09-14T21:53:30.172Z,3.17
2022-09-14T21:55:56.887Z,2.60
2022-09-14T21:58:23.430Z,3.78
2022-09-14T22:00:56.658Z,2.33
2022-09-14T22:03:23.626Z,2.30
2022-09-14T22:06:08.689Z,4.00
2022-09-14T22:08:35.895Z,2.10
2022-09-14T22:11:05.154Z,3.10
2022-09-14T22:13:32.195Z,2.95
2022-09-14T22:15:59.589Z,4.05
2022-09-14T22:18:26.551Z,3.17
2022-09-14T22:20:58.398Z,4.47
2022-09-14T22:23:25.275Z,4.05
2022-09-14T22:25:52.393Z,5.90
2022-09-14T22:28:20.037Z,3.90
2022-09-14T22:30:49.914Z,4.03
2022-09-14T22:33:16.529Z,2.65
2022-09-14T22:35:53.384Z,3.75
2022-09-14T22:38:22.254Z,6.05
2022-09-14T22:40:58.307Z,5.82
2022-09-14T22:43:25.961Z,3.70
2022-09-14T22:45:52.611Z,5.18
2022-09-14T22:48:19.897Z,4.00
2022-09-14T22:50:48.615Z,3.67
2022-09-14T22:53:15.892Z,6.38
2022-09-14T22:55:44.066Z,3.42
2022-09-14T22:58:12.426Z,3.95
2022-09-14T23:00:40.187Z,5.93
2022-09-14T23:03:07.712Z,3.33
2022-09-14T23:05:36.037Z,7.20
2022-09-14T23:08:04.757Z,3.95
2022-09-14T23:10:31.455Z,5.50
2022-09-14T23:12:59.010Z,4.47
2022-09-14T23:15:25.561Z,3.67
2022-09-14T23:17:52.339Z,6.05
2022-09-14T23:20:19.000Z,4.45
2022-09-14T23:22:45.667Z,4.22
2022-09-14T23:25:12.497Z,3.78
2022-09-14T23:27:39.033Z,4.07
2022-09-14T23:30:06.259Z,5.68
2022-09-14T23:32:32.869Z,5.93
2022-09-14T23:34:59.408Z,3.97
2022-09-14T23:37:25.936Z,4.38
2022-09-14T23:39:52.535Z,4.68
2022-09-14T23:42:19.114Z,5.05
2022-09-14T23:44:45.755Z,5.95
2022-09-14T23:47:12.286Z,4.75
2022-09-14T23:49:38.797Z,3.58
2022-09-14T23:52:05.310Z,4.43
2022-09-14T23:54:32.254Z,4.95
2022-09-14T23:56:58.846Z,4.78
2022-09-14T23:59:25.478Z,3.60
